• Join FlightAware (Why Join?)
  • Login
  • US Flag 
08:26PM EDT


 

Airport Tracker/Info


-or-


 

Live Flight TrackerFlight Track Log ✈ CPT8773 ✈ 20-Sep-2013 ✈ KCPR - KCOD

Flight Track Log - Related Links

Times and Time Zones

All times are in EDT time to prevent confusion due to time zone crossing. See the CPT8773 flight status page for this flight to view local times or setup timezone preferences in your user account.

Time Position Orientation Groundspeed Altitude Reporting Facility
EDT Latitude Longitude Course Direction KTS MPH feet Rate Location/Type
09:40AM 43.0122 -106.4647 346° North 143 165 6,800  Level Salt Lake Center
09:41AM 43.0508 -106.4686 356° North 144 166 7,400 540 Climbing Salt Lake Center
09:42AM 43.0936 -106.4747 354° North 142 163 8,000 480 Climbing Salt Lake Center
09:43AM 43.0370 -106.6610 307° West  Level Estimated
09:43AM 43.1281 -106.4794 354° North 137 158 8,500  Level Salt Lake Center
09:44AM 43.0745 -106.6736 346° North  Level FlightAware Approximate
09:44AM 43.1628 -106.4847 354° North 134 154 9,000  Level Salt Lake Center
09:45AM 43.1120 -106.6862 346° North  Level FlightAware Approximate
09:45AM 43.2036 -106.4908 354° North 132 152 9,600  Level Salt Lake Center
09:46AM 43.2267 -106.5264 312° West 132 152 10,100 480 Climbing Salt Lake Center
09:47AM 43.2458 -106.5764 298° West 120 138 10,700 420 Climbing Denver Center
09:48AM 43.2672 -106.6139 308° West 128 147 11,100 420 Climbing Denver Center
09:49AM 43.2817 -106.6475 301° West 128 147 11,500 420 Climbing Salt Lake Center
09:50AM 43.3064 -106.6897 309° West 127 146 12,000 240 Climbing Salt Lake Center
09:51AM 43.3267 -106.7317 304° West 133 153 12,000  Level Salt Lake Center
09:52AM 43.3544 -106.7778 310° West 139 160 12,000  Level Salt Lake Center
09:53AM 43.3767 -106.8206 306° West 143 165 12,000  Level Salt Lake Center
09:54AM 43.3972 -106.8642 303° West 143 165 12,000  Level Salt Lake Center
09:55AM 43.4231 -106.9142 305° West 143 165 12,000  Level Salt Lake Center
09:56AM 43.4478 -106.9600 307° West 143 165 12,000  Level Salt Lake Center
09:57AM 43.4717 -107.0042 307° West 143 165 12,000  Level Salt Lake Center
09:58AM 43.4956 -107.0486 307° West 144 166 12,000  Level Salt Lake Center
09:59AM 43.5192 -107.0958 305° West 149 171 12,000  Level Salt Lake Center
10:00AM 43.5417 -107.1403 305° West 144 166 12,000  Level Salt Lake Center
10:01AM 43.5661 -107.1836 308° West 143 165 12,000  Level Salt Lake Center
10:02AM 43.5894 -107.2289 305° West 145 167 12,000  Level Salt Lake Center
10:03AM 43.6119 -107.2758 304° West 147 169 12,000  Level Salt Lake Center
10:04AM 43.6358 -107.3194 307° West 144 166 12,000  Level Salt Lake Center
10:05AM 43.6631 -107.3733 305° West 142 163 12,000  Level Salt Lake Center
10:06AM 43.6861 -107.4208 304° West 148 170 12,000  Level Salt Lake Center
10:07AM 43.7092 -107.4642 306° West 144 166 12,000  Level Salt Lake Center
10:08AM 43.7339 -107.5067 309° West 142 163 12,000  Level Salt Lake Center
10:09AM 43.7569 -107.5519 305° West 143 165 12,000  Level Salt Lake Center
10:10AM 43.7814 -107.5994 305° West 146 168 12,000  Level Salt Lake Center
10:11AM 43.8047 -107.6469 304° West 148 170 12,000  Level Salt Lake Center
10:12AM 43.8283 -107.6936 305° West 148 170 12,000  Level Salt Lake Center
10:13AM 43.8544 -107.7500 303° West 147 169 12,000 -180 Level Salt Lake Center
10:14AM 43.8789 -107.7944 307° West 146 168 11,700 -360 Descending Salt Lake Center
10:15AM 43.9025 -107.8386 307° West 145 167 11,300 -480 Descending Salt Lake Center
10:16AM 43.9261 -107.8831 306° West 144 166 10,800 -480 Descending Salt Lake Center
10:17AM 43.9506 -107.9275 307° West 144 166 10,400 -420 Descending Salt Lake Center
10:18AM 43.9750 -107.9731 307° West 145 167 10,000 -240 Descending Salt Lake Center
10:20AM 43.9994 -108.0203 306° West 147 169 10,000  Level Salt Lake Center
10:21AM 44.0261 -108.0681 308° West 151 174 10,000  Level Salt Lake Center
10:22AM 44.0508 -108.1172 305° West 153 176 10,000  Level Salt Lake Center
10:23AM 44.0819 -108.1747 307° West 155 178 10,000  Level Salt Lake Center
10:24AM 44.1075 -108.2219 307° West 154 177 10,000  Level Salt Lake Center
10:25AM 44.1325 -108.2692 306° West 153 176 10,000  Level Salt Lake Center
10:26AM 44.1572 -108.3150 307° West 151 174 10,000  Level Salt Lake Center
10:27AM 44.1822 -108.3625 306° West 151 174 10,000  Level Salt Lake Center
10:28AM 44.2067 -108.4092 306° West 150 173 10,000  Level Salt Lake Center
10:29AM 44.2314 -108.4558 306° West 150 173 10,000  Level Salt Lake Center
10:30AM 44.2564 -108.5022 307° West 150 173 10,000  Level Salt Lake Center
10:31AM 44.2856 -108.5572 307° West 149 171 10,000  Level Salt Lake Center
10:32AM 44.3103 -108.6036 307° West 148 170 10,000  Level Salt Lake Center
10:33AM 44.3344 -108.6500 306° West 148 170 10,000  Level Salt Lake Center